sensor_id;sensor_type;location;lat;lon;timestamp;pressure;altitude;pressure_sealevel;temperature;humidity
75815;BME280;70031;45.570;14.228;2023-07-09T00:00:53;97524.66;;;12.90;100.00
75815;BME280;70031;45.570;14.228;2023-07-09T00:02:53;97521.91;;;12.96;100.00
75815;BME280;70031;45.570;14.228;2023-07-09T00:05:01;97519.78;;;12.92;100.00
75815;BME280;70031;45.570;14.228;2023-07-09T00:07:03;97524.88;;;12.99;100.00
75815;BME280;70031;45.570;14.228;2023-07-09T00:09:04;97518.88;;;13.02;100.00
75815;BME280;70031;45.570;14.228;2023-07-09T00:11:05;97518.41;;;12.95;100.00
75815;BME280;70031;45.570;14.228;2023-07-09T00:13:05;97525.66;;;13.00;100.00
75815;BME280;70031;45.570;14.228;2023-07-09T00:15:06;97520.47;;;13.03;100.00
75815;BME280;70031;45.570;14.228;2023-07-09T00:17:31;97531.69;;;13.15;100.00
75815;BME280;70031;45.570;14.228;2023-07-09T00:19:33;97525.84;;;13.08;100.00
75815;BME280;70031;45.570;14.228;2023-07-09T00:21:33;97529.09;;;13.05;100.00
75815;BME280;70031;45.570;14.228;2023-07-09T00:23:34;97524.31;;;12.97;100.00
75815;BME280;70031;45.570;14.228;2023-07-09T00:25:34;97525.19;;;12.92;100.00
75815;BME280;70031;45.570;14.228;2023-07-09T00:27:36;97518.06;;;13.02;100.00
75815;BME280;70031;45.570;14.228;2023-07-09T00:29:36;97518.88;;;13.02;100.00
75815;BME280;70031;45.570;14.228;2023-07-09T00:31:37;97517.47;;;13.05;100.00
75815;BME280;70031;45.570;14.228;2023-07-09T00:33:41;97521.25;;;13.09;100.00
75815;BME280;70031;45.570;14.228;2023-07-09T00:35:42;97525.72;;;12.94;100.00
75815;BME280;70031;45.570;14.228;2023-07-09T00:37:44;97518.41;;;12.95;100.00
75815;BME280;70031;45.570;14.228;2023-07-09T00:39:45;97524.09;;;12.93;100.00
75815;BME280;70031;45.570;14.228;2023-07-09T00:41:49;97523.81;;;12.95;100.00
75815;BME280;70031;45.570;14.228;2023-07-09T00:43:51;97519.53;;;12.89;100.00
75815;BME280;70031;45.570;14.228;2023-07-09T00:48:20;97517.13;;;12.87;100.00
75815;BME280;70031;45.570;14.228;2023-07-09T00:50:34;97524.56;;;12.72;100.00
75815;BME280;70031;45.570;14.228;2023-07-09T00:52:50;97522.69;;;12.72;100.00
75815;BME280;70031;45.570;14.228;2023-07-09T00:54:54;97523.66;;;12.81;100.00
75815;BME280;70031;45.570;14.228;2023-07-09T00:57:02;97527.72;;;12.84;100.00
75815;BME280;70031;45.570;14.228;2023-07-09T00:59:10;97517.00;;;12.74;100.00
75815;BME280;70031;45.570;14.228;2023-07-09T01:01:13;97521.38;;;12.70;100.00
75815;BME280;70031;45.570;14.228;2023-07-09T01:03:23;97527.34;;;12.67;100.00
75815;BME280;70031;45.570;14.228;2023-07-09T01:05:26;97533.28;;;12.63;100.00
75815;BME280;70031;45.570;14.228;2023-07-09T01:07:28;97530.03;;;12.67;100.00
75815;BME280;70031;45.570;14.228;2023-07-09T01:09:29;97528.94;;;12.68;100.00
75815;BME280;70031;45.570;14.228;2023-07-09T01:11:30;97536.44;;;12.76;100.00
75815;BME280;70031;45.570;14.228;2023-07-09T01:13:32;97530.47;;;12.79;100.00
75815;BME280;70031;45.570;14.228;2023-07-09T01:15:33;97537.13;;;12.86;100.00
75815;BME280;70031;45.570;14.228;2023-07-09T01:17:34;97529.53;;;12.88;100.00
75815;BME280;70031;45.570;14.228;2023-07-09T01:19:40;97542.22;;;12.93;100.00
75815;BME280;70031;45.570;14.228;2023-07-09T01:21:43;97540.69;;;12.82;100.00
75815;BME280;70031;45.570;14.228;2023-07-09T01:23:47;97538.59;;;12.74;100.00
75815;BME280;70031;45.570;14.228;2023-07-09T01:25:51;97531.66;;;12.68;100.00
75815;BME280;70031;45.570;14.228;2023-07-09T01:27:54;97534.38;;;12.62;100.00
75815;BME280;70031;45.570;14.228;2023-07-09T01:29:56;97533.38;;;12.53;100.00
75815;BME280;70031;45.570;14.228;2023-07-09T01:31:57;97533.63;;;12.57;100.00
75815;BME280;70031;45.570;14.228;2023-07-09T01:33:58;97533.06;;;12.60;100.00
75815;BME280;70031;45.570;14.228;2023-07-09T01:35:58;97535.03;;;12.49;100.00
75815;BME280;70031;45.570;14.228;2023-07-09T01:38:00;97528.28;;;12.52;100.00
75815;BME280;70031;45.570;14.228;2023-07-09T01:40:01;97523.72;;;12.47;100.00
75815;BME280;70031;45.570;14.228;2023-07-09T01:42:02;97523.72;;;12.47;100.00
75815;BME280;70031;45.570;14.228;2023-07-09T01:44:02;97524.28;;;12.44;100.00
75815;BME280;70031;45.570;14.228;2023-07-09T01:46:03;97531.34;;;12.40;100.00
75815;BME280;70031;45.570;14.228;2023-07-09T01:48:05;97530.31;;;12.31;100.00
75815;BME280;70031;45.570;14.228;2023-07-09T01:50:06;97527.19;;;12.19;100.00
75815;BME280;70031;45.570;14.228;2023-07-09T01:52:07;97525.31;;;12.14;100.00
75815;BME280;70031;45.570;14.228;2023-07-09T01:54:12;97530.13;;;12.22;100.00
75815;BME280;70031;45.570;14.228;2023-07-09T01:56:13;97525.50;;;12.28;100.00
75815;BME280;70031;45.570;14.228;2023-07-09T01:58:13;97533.00;;;12.36;100.00
75815;BME280;70031;45.570;14.228;2023-07-09T02:00:16;97527.81;;;12.40;100.00
75815;BME280;70031;45.570;14.228;2023-07-09T02:02:17;97537.28;;;12.42;100.00
75815;BME280;70031;45.570;14.228;2023-07-09T02:04:20;97534.84;;;12.41;100.00
75815;BME280;70031;45.570;14.228;2023-07-09T02:06:20;97538.34;;;12.41;100.00
75815;BME280;70031;45.570;14.228;2023-07-09T02:08:24;97533.22;;;12.40;100.00
75815;BME280;70031;45.570;14.228;2023-07-09T02:10:24;97538.06;;;12.43;100.00
75815;BME280;70031;45.570;14.228;2023-07-09T02:12:25;97538.31;;;12.46;100.00
75815;BME280;70031;45.570;14.228;2023-07-09T02:14:25;97544.00;;;12.74;100.00
75815;BME280;70031;45.570;14.228;2023-07-09T02:16:25;97547.09;;;12.62;100.00
75815;BME280;70031;45.570;14.228;2023-07-09T02:18:28;97544.19;;;12.53;100.00
75815;BME280;70031;45.570;14.228;2023-07-09T02:20:28;97543.34;;;12.24;100.00
75815;BME280;70031;45.570;14.228;2023-07-09T02:22:29;97538.69;;;11.95;100.00
75815;BME280;70031;45.570;14.228;2023-07-09T02:24:29;97538.69;;;11.95;100.00
75815;BME280;70031;45.570;14.228;2023-07-09T02:26:29;97541.94;;;11.92;100.00
75815;BME280;70031;45.570;14.228;2023-07-09T02:28:30;97553.78;;;11.91;100.00
75815;BME280;70031;45.570;14.228;2023-07-09T02:30:30;97543.00;;;11.96;100.00
75815;BME280;70031;45.570;14.228;2023-07-09T02:32:30;97545.44;;;11.93;100.00
75815;BME280;70031;45.570;14.228;2023-07-09T02:34:31;97550.88;;;11.82;100.00
75815;BME280;70031;45.570;14.228;2023-07-09T02:36:31;97542.53;;;11.79;100.00
75815;BME280;70031;45.570;14.228;2023-07-09T02:38:32;97543.59;;;11.83;100.00
75815;BME280;70031;45.570;14.228;2023-07-09T02:40:32;97540.31;;;11.91;100.00
75815;BME280;70031;45.570;14.228;2023-07-09T02:42:34;97545.97;;;11.95;100.00
75815;BME280;70031;45.570;14.228;2023-07-09T02:44:34;97552.22;;;11.85;100.00
75815;BME280;70031;45.570;14.228;2023-07-09T02:46:35;97553.78;;;11.91;100.00
75815;BME280;70031;45.570;14.228;2023-07-09T02:48:35;97555.09;;;11.99;100.00
75815;BME280;70031;45.570;14.228;2023-07-09T02:50:35;97562.94;;;12.00;100.00
75815;BME280;70031;45.570;14.228;2023-07-09T02:52:36;97552.66;;;12.02;100.00
75815;BME280;70031;45.570;14.228;2023-07-09T02:54:36;97558.06;;;12.02;100.00
75815;BME280;70031;45.570;14.228;2023-07-09T02:56:36;97562.13;;;12.00;100.00
75815;BME280;70031;45.570;14.228;2023-07-09T02:58:37;97567.84;;;11.93;100.00
75815;BME280;70031;45.570;14.228;2023-07-09T03:00:37;97570.25;;;11.90;100.00
75815;BME280;70031;45.570;14.228;2023-07-09T03:02:37;97573.22;;;11.93;100.00
75815;BME280;70031;45.570;14.228;2023-07-09T03:04:38;97568.44;;;11.80;100.00
75815;BME280;70031;45.570;14.228;2023-07-09T03:06:38;97565.25;;;11.68;100.00
75815;BME280;70031;45.570;14.228;2023-07-09T03:08:39;97562.31;;;11.59;100.00
75815;BME280;70031;45.570;14.228;2023-07-09T03:10:40;97568.81;;;11.53;100.00
75815;BME280;70031;45.570;14.228;2023-07-09T03:12:40;97564.47;;;11.57;100.00
75815;BME280;70031;45.570;14.228;2023-07-09T03:14:40;97565.53;;;11.61;100.00
75815;BME280;70031;45.570;14.228;2023-07-09T03:16:41;97566.56;;;11.70;100.00
75815;BME280;70031;45.570;14.228;2023-07-09T03:18:42;97570.84;;;11.81;100.00
75815;BME280;70031;45.570;14.228;2023-07-09T03:20:42;97557.63;;;11.75;100.00
75815;BME280;70031;45.570;14.228;2023-07-09T03:22:42;97565.72;;;11.75;100.00
75815;BME280;70031;45.570;14.228;2023-07-09T03:24:43;97566.84;;;11.69;100.00
75815;BME280;70031;45.570;14.228;2023-07-09T03:26:45;97566.31;;;11.67;100.00
75815;BME280;70031;45.570;14.228;2023-07-09T03:28:45;97574.72;;;11.60;100.00
75815;BME280;70031;45.570;14.228;2023-07-09T03:30:47;97572.81;;;11.61;100.00
75815;BME280;70031;45.570;14.228;2023-07-09T03:32:48;97568.25;;;11.56;100.00
75815;BME280;70031;45.570;14.228;2023-07-09T03:34:48;97570.13;;;11.61;100.00
75815;BME280;70031;45.570;14.228;2023-07-09T03:36:49;97579.81;;;11.67;100.00
75815;BME280;70031;45.570;14.228;2023-07-09T03:38:49;97570.06;;;11.71;100.00
75815;BME280;70031;45.570;14.228;2023-07-09T03:40:51;97568.97;;;11.77;100.00
75815;BME280;70031;45.570;14.228;2023-07-09T03:42:52;97574.09;;;11.84;100.00
75815;BME280;70031;45.570;14.228;2023-07-09T03:44:52;97583.78;;;11.85;100.00
75815;BME280;70031;45.570;14.228;2023-07-09T03:46:53;97586.50;;;11.85;100.00
75815;BME280;70031;45.570;14.228;2023-07-09T03:48:53;97582.44;;;11.82;100.00
75815;BME280;70031;45.570;14.228;2023-07-09T03:50:53;97581.34;;;11.88;100.00
75815;BME280;70031;45.570;14.228;2023-07-09T03:52:54;97585.88;;;11.98;100.00
75815;BME280;70031;45.570;14.228;2023-07-09T03:54:54;97585.56;;;11.99;100.00
75815;BME280;70031;45.570;14.228;2023-07-09T03:56:56;97589.38;;;11.98;100.00
75815;BME280;70031;45.570;14.228;2023-07-09T03:58:57;97589.66;;;11.97;100.00
75815;BME280;70031;45.570;14.228;2023-07-09T04:00:57;97582.88;;;12.04;100.00
75815;BME280;70031;45.570;14.228;2023-07-09T04:02:58;97586.63;;;12.08;100.00
75815;BME280;70031;45.570;14.228;2023-07-09T04:04:59;97579.28;;;12.14;100.00
75815;BME280;70031;45.570;14.228;2023-07-09T04:06:59;97594.09;;;12.22;100.00
75815;BME280;70031;45.570;14.228;2023-07-09T04:08:59;97583.50;;;12.30;100.00
75815;BME280;70031;45.570;14.228;2023-07-09T04:11:01;97593.97;;;12.37;100.00
75815;BME280;70031;45.570;14.228;2023-07-09T04:13:02;97583.09;;;12.47;100.00
75815;BME280;70031;45.570;14.228;2023-07-09T04:15:03;97573.59;;;12.55;100.00
75815;BME280;70031;45.570;14.228;2023-07-09T04:17:04;97577.06;;;12.60;100.00
75815;BME280;70031;45.570;14.228;2023-07-09T04:19:04;97575.00;;;12.47;100.00
75815;BME280;70031;45.570;14.228;2023-07-09T04:21:05;97587.41;;;12.48;100.00
75815;BME280;70031;45.570;14.228;2023-07-09T04:23:05;97571.75;;;12.50;100.00
75815;BME280;70031;45.570;14.228;2023-07-09T04:25:07;97576.28;;;12.60;100.00
75815;BME280;70031;45.570;14.228;2023-07-09T04:27:09;97572.44;;;12.66;100.00
75815;BME280;70031;45.570;14.228;2023-07-09T04:29:10;97580.38;;;12.81;100.00
75815;BME280;70031;45.570;14.228;2023-07-09T04:31:10;97575.28;;;12.80;100.00
75815;BME280;70031;45.570;14.228;2023-07-09T04:33:11;97577.47;;;12.78;100.00
75815;BME280;70031;45.570;14.228;2023-07-09T04:35:13;97575.53;;;12.83;100.00
75815;BME280;70031;45.570;14.228;2023-07-09T04:37:14;97583.53;;;12.93;100.00
75815;BME280;70031;45.570;14.228;2023-07-09T04:39:17;97579.91;;;13.03;100.00
75815;BME280;70031;45.570;14.228;2023-07-09T04:41:18;97580.63;;;13.14;100.00
75815;BME280;70031;45.570;14.228;2023-07-09T04:43:18;97585.69;;;13.26;100.00
75815;BME280;70031;45.570;14.228;2023-07-09T04:45:19;97577.44;;;13.36;100.00
75815;BME280;70031;45.570;14.228;2023-07-09T04:47:19;97582.72;;;13.46;100.00
75815;BME280;70031;45.570;14.228;2023-07-09T04:49:20;97587.50;;;13.54;100.00
75815;BME280;70031;45.570;14.228;2023-07-09T04:51:20;97578.25;;;13.60;100.00
75815;BME280;70031;45.570;14.228;2023-07-09T04:53:20;97589.53;;;13.67;100.00
75815;BME280;70031;45.570;14.228;2023-07-09T04:55:21;97580.75;;;13.75;100.00
75815;BME280;70031;45.570;14.228;2023-07-09T04:57:21;97595.47;;;13.88;100.00
75815;BME280;70031;45.570;14.228;2023-07-09T04:59:22;97594.09;;;13.91;100.00
75815;BME280;70031;45.570;14.228;2023-07-09T05:01:23;97589.84;;;13.85;100.00
75815;BME280;70031;45.570;14.228;2023-07-09T05:03:23;97590.81;;;13.94;100.00
75815;BME280;70031;45.570;14.228;2023-07-09T05:05:24;97586.13;;;13.99;100.00
75815;BME280;70031;45.570;14.228;2023-07-09T05:07:24;97584.59;;;14.12;100.00
75815;BME280;70031;45.570;14.228;2023-07-09T05:09:24;97588.34;;;14.16;100.00
75815;BME280;70031;45.570;14.228;2023-07-09T05:11:25;97591.97;;;14.06;100.00
75815;BME280;70031;45.570;14.228;2023-07-09T05:13:25;97581.31;;;14.15;100.00
75815;BME280;70031;45.570;14.228;2023-07-09T05:15:25;97587.38;;;14.26;100.00
75815;BME280;70031;45.570;14.228;2023-07-09T05:17:26;97588.53;;;14.20;100.00
75815;BME280;70031;45.570;14.228;2023-07-09T05:19:26;97578.00;;;14.18;100.00
75815;BME280;70031;45.570;14.228;2023-07-09T05:21:27;97578.69;;;14.10;100.00
75815;BME280;70031;45.570;14.228;2023-07-09T05:23:27;97575.97;;;14.10;100.00
75815;BME280;70031;45.570;14.228;2023-07-09T05:25:28;97578.88;;;14.14;100.00
75815;BME280;70031;45.570;14.228;2023-07-09T05:27:28;97581.81;;;14.17;100.00
75815;BME280;70031;45.570;14.228;2023-07-09T05:29:28;97588.25;;;14.21;100.00
75815;BME280;70031;45.570;14.228;2023-07-09T05:31:29;97585.47;;;14.26;100.00
75815;BME280;70031;45.570;14.228;2023-07-09T05:33:29;97591.91;;;14.30;100.00
75815;BME280;70031;45.570;14.228;2023-07-09T05:35:29;97588.53;;;14.39;100.00
75815;BME280;70031;45.570;14.228;2023-07-09T05:37:30;97584.66;;;14.45;100.00
75815;BME280;70031;45.570;14.228;2023-07-09T05:39:30;97583.16;;;14.57;100.00
75815;BME280;70031;45.570;14.228;2023-07-09T05:41:31;97581.38;;;14.67;100.00
75815;BME280;70031;45.570;14.228;2023-07-09T05:43:31;97586.41;;;14.73;100.00
75815;BME280;70031;45.570;14.228;2023-07-09T05:45:32;97583.59;;;14.78;100.00
75815;BME280;70031;45.570;14.228;2023-07-09T05:47:32;97595.59;;;14.91;100.00
75815;BME280;70031;45.570;14.228;2023-07-09T05:49:32;97595.53;;;15.10;100.00
75815;BME280;70031;45.570;14.228;2023-07-09T05:51:33;97586.31;;;15.52;100.00
75815;BME280;70031;45.570;14.228;2023-07-09T05:53:34;97590.09;;;16.20;100.00
75815;BME280;70031;45.570;14.228;2023-07-09T05:55:34;97599.53;;;16.58;99.50
75815;BME280;70031;45.570;14.228;2023-07-09T05:57:35;97596.75;;;16.95;97.30
75815;BME280;70031;45.570;14.228;2023-07-09T05:59:35;97593.09;;;18.44;88.27
75815;BME280;70031;45.570;14.228;2023-07-09T06:01:35;97600.63;;;18.13;87.68
75815;BME280;70031;45.570;14.228;2023-07-09T06:03:36;97591.81;;;18.50;85.74
75815;BME280;70031;45.570;14.228;2023-07-09T06:05:37;97593.88;;;19.05;84.23
75815;BME280;70031;45.570;14.228;2023-07-09T06:07:38;97596.25;;;19.71;81.48
75815;BME280;70031;45.570;14.228;2023-07-09T06:09:39;97597.28;;;20.38;76.54
75815;BME280;70031;45.570;14.228;2023-07-09T06:11:39;97595.31;;;19.97;78.71
75815;BME280;70031;45.570;14.228;2023-07-09T06:13:39;97602.44;;;21.26;74.23
75815;BME280;70031;45.570;14.228;2023-07-09T06:15:40;97598.44;;;22.18;69.68
75815;BME280;70031;45.570;14.228;2023-07-09T06:17:41;97593.63;;;21.54;70.86
75815;BME280;70031;45.570;14.228;2023-07-09T06:19:42;97591.00;;;21.12;72.02
75815;BME280;70031;45.570;14.228;2023-07-09T06:21:43;97586.09;;;20.52;76.04
75815;BME280;70031;45.570;14.228;2023-07-09T06:23:45;97588.03;;;21.75;72.18
75815;BME280;70031;45.570;14.228;2023-07-09T06:25:46;97585.00;;;21.19;74.60
75815;BME280;70031;45.570;14.228;2023-07-09T06:27:47;97591.19;;;21.28;74.79
75815;BME280;70031;45.570;14.228;2023-07-09T06:29:48;97582.50;;;23.04;65.61
75815;BME280;70031;45.570;14.228;2023-07-09T06:31:48;97592.53;;;23.12;66.62
75815;BME280;70031;45.570;14.228;2023-07-09T06:33:49;97592.88;;;23.70;65.45
75815;BME280;70031;45.570;14.228;2023-07-09T06:35:52;97588.44;;;24.32;59.66
75815;BME280;70031;45.570;14.228;2023-07-09T06:37:53;97587.19;;;23.63;63.09
75815;BME280;70031;45.570;14.228;2023-07-09T06:39:56;97577.25;;;22.99;61.99
75815;BME280;70031;45.570;14.228;2023-07-09T06:41:57;97589.19;;;21.74;67.84
75815;BME280;70031;45.570;14.228;2023-07-09T06:44:10;97594.44;;;22.15;69.15
75815;BME280;70031;45.570;14.228;2023-07-09T06:46:14;97593.50;;;23.64;64.32
75815;BME280;70031;45.570;14.228;2023-07-09T06:50:15;97580.38;;;22.17;67.43
75815;BME280;70031;45.570;14.228;2023-07-09T06:52:45;97576.00;;;23.56;68.18
75815;BME280;70031;45.570;14.228;2023-07-09T06:54:48;97574.50;;;23.59;63.20
75815;BME280;70031;45.570;14.228;2023-07-09T06:56:50;97589.19;;;21.86;69.79
75815;BME280;70031;45.570;14.228;2023-07-09T06:58:53;97577.53;;;21.65;71.99
75815;BME280;70031;45.570;14.228;2023-07-09T07:00:55;97576.84;;;22.17;68.98
75815;BME280;70031;45.570;14.228;2023-07-09T07:02:56;97573.47;;;22.76;68.35
75815;BME280;70031;45.570;14.228;2023-07-09T07:05:02;97573.44;;;23.79;71.10
75815;BME280;70031;45.570;14.228;2023-07-09T07:07:03;97573.97;;;24.00;70.63
75815;BME280;70031;45.570;14.228;2023-07-09T07:09:03;97571.91;;;23.50;72.71
75815;BME280;70031;45.570;14.228;2023-07-09T07:11:05;97570.63;;;25.69;60.32
75815;BME280;70031;45.570;14.228;2023-07-09T07:13:29;97564.13;;;23.36;65.47
75815;BME280;70031;45.570;14.228;2023-07-09T07:15:29;97566.25;;;24.41;64.69
75815;BME280;70031;45.570;14.228;2023-07-09T07:17:35;97558.19;;;24.71;64.14
75815;BME280;70031;45.570;14.228;2023-07-09T07:19:43;97570.63;;;25.69;61.32
75815;BME280;70031;45.570;14.228;2023-07-09T07:21:43;97561.94;;;26.76;57.64
75815;BME280;70031;45.570;14.228;2023-07-09T07:23:44;97569.34;;;25.17;61.30
75815;BME280;70031;45.570;14.228;2023-07-09T07:25:45;97556.97;;;24.14;65.21
75815;BME280;70031;45.570;14.228;2023-07-09T07:27:46;97568.47;;;25.13;61.22
75815;BME280;70031;45.570;14.228;2023-07-09T07:29:57;97569.28;;;24.20;63.23
75815;BME280;70031;45.570;14.228;2023-07-09T07:31:58;97569.06;;;24.09;66.05
75815;BME280;70031;45.570;14.228;2023-07-09T07:34:00;97576.16;;;26.22;60.45
75815;BME280;70031;45.570;14.228;2023-07-09T07:36:07;97561.28;;;27.24;55.62
75815;BME280;70031;45.570;14.228;2023-07-09T07:38:10;97564.63;;;25.86;58.06
75815;BME280;70031;45.570;14.228;2023-07-09T07:40:11;97562.16;;;24.93;61.86
75815;BME280;70031;45.570;14.228;2023-07-09T07:42:11;97547.50;;;24.66;63.06
75815;BME280;70031;45.570;14.228;2023-07-09T07:44:12;97553.56;;;24.36;66.70
75815;BME280;70031;45.570;14.228;2023-07-09T07:46:12;97553.38;;;25.98;61.34
75815;BME280;70031;45.570;14.228;2023-07-09T07:48:12;97555.19;;;26.40;58.33
75815;BME280;70031;45.570;14.228;2023-07-09T07:50:14;97544.28;;;27.22;59.92
75815;BME280;70031;45.570;14.228;2023-07-09T07:52:15;97549.75;;;27.59;54.51
75815;BME280;70031;45.570;14.228;2023-07-09T07:54:20;97543.16;;;27.30;55.60
75815;BME280;70031;45.570;14.228;2023-07-09T07:56:26;97544.63;;;27.61;58.22
75815;BME280;70031;45.570;14.228;2023-07-09T07:58:31;97536.97;;;27.40;52.73
75815;BME280;70031;45.570;14.228;2023-07-09T08:00:31;97554.81;;;26.42;65.94
75815;BME280;70031;45.570;14.228;2023-07-09T08:02:32;97548.19;;;27.61;59.74
75815;BME280;70031;45.570;14.228;2023-07-09T08:04:32;97541.25;;;28.40;54.88
75815;BME280;70031;45.570;14.228;2023-07-09T08:06:33;97537.75;;;27.40;56.41
75815;BME280;70031;45.570;14.228;2023-07-09T08:08:33;97536.59;;;27.04;54.07
75815;BME280;70031;45.570;14.228;2023-07-09T08:10:33;97537.44;;;26.75;55.91
75815;BME280;70031;45.570;14.228;2023-07-09T08:12:34;97544.59;;;26.46;57.34
75815;BME280;70031;45.570;14.228;2023-07-09T08:14:35;97541.19;;;26.93;54.07
75815;BME280;70031;45.570;14.228;2023-07-09T08:16:35;97543.16;;;26.93;54.89
75815;BME280;70031;45.570;14.228;2023-07-09T08:18:36;97540.41;;;26.29;58.62
75815;BME280;70031;45.570;14.228;2023-07-09T08:20:37;97540.63;;;26.43;67.29
75815;BME280;70031;45.570;14.228;2023-07-09T08:22:37;97535.53;;;27.57;58.88
75815;BME280;70031;45.570;14.228;2023-07-09T08:24:38;97536.06;;;27.29;57.26
75815;BME280;70031;45.570;14.228;2023-07-09T08:26:38;97539.06;;;28.09;55.62
75815;BME280;70031;45.570;14.228;2023-07-09T08:28:39;97527.94;;;27.98;57.79
75815;BME280;70031;45.570;14.228;2023-07-09T08:30:39;97539.56;;;28.28;56.24
75815;BME280;70031;45.570;14.228;2023-07-09T08:32:40;97527.13;;;28.77;56.26
75815;BME280;70031;45.570;14.228;2023-07-09T08:34:41;97536.38;;;29.24;51.22
75815;BME280;70031;45.570;14.228;2023-07-09T08:36:41;97537.72;;;28.54;52.15
75815;BME280;70031;45.570;14.228;2023-07-09T08:38:41;97542.50;;;28.57;52.49
75815;BME280;70031;45.570;14.228;2023-07-09T08:40:54;97532.31;;;28.82;50.06
75815;BME280;70031;45.570;14.228;2023-07-09T08:43:02;97531.66;;;28.23;54.92
75815;BME280;70031;45.570;14.228;2023-07-09T08:45:50;97519.31;;;28.90;52.04
75815;BME280;70031;45.570;14.228;2023-07-09T08:48:06;97522.91;;;29.16;54.20
75815;BME280;70031;45.570;14.228;2023-07-09T08:50:13;97522.13;;;29.15;49.66
75815;BME280;70031;45.570;14.228;2023-07-09T08:52:21;97523.34;;;29.53;51.23
75815;BME280;70031;45.570;14.228;2023-07-09T08:54:32;97528.88;;;29.78;52.10
75815;BME280;70031;45.570;14.228;2023-07-09T08:56:34;97518.59;;;29.68;56.05
75815;BME280;70031;45.570;14.228;2023-07-09T08:58:36;97519.72;;;30.24;54.52
75815;BME280;70031;45.570;14.228;2023-07-09T09:00:52;97509.81;;;29.02;50.39
75815;BME280;70031;45.570;14.228;2023-07-09T09:03:14;97513.81;;;29.15;47.67
75815;BME280;70031;45.570;14.228;2023-07-09T09:05:19;97516.13;;;28.92;48.98
75815;BME280;70031;45.570;14.228;2023-07-09T09:07:43;97505.81;;;28.02;56.11
75815;BME280;70031;45.570;14.228;2023-07-09T09:09:57;97513.81;;;28.17;62.10
75815;BME280;70031;45.570;14.228;2023-07-09T09:14:33;97505.50;;;29.40;48.62
75815;BME280;70031;45.570;14.228;2023-07-09T09:16:38;97510.25;;;29.97;50.72
75815;BME280;70031;45.570;14.228;2023-07-09T09:18:43;97511.81;;;29.98;45.21
75815;BME280;70031;45.570;14.228;2023-07-09T09:20:52;97507.06;;;29.98;44.35
75815;BME280;70031;45.570;14.228;2023-07-09T09:27:49;97523.28;;;30.25;43.88
75815;BME280;70031;45.570;14.228;2023-07-09T09:29:49;97507.13;;;29.62;48.23
75815;BME280;70031;45.570;14.228;2023-07-09T09:31:53;97508.66;;;29.78;44.89
75815;BME280;70031;45.570;14.228;2023-07-09T09:33:57;97511.03;;;29.90;47.23
75815;BME280;70031;45.570;14.228;2023-07-09T09:36:02;97506.72;;;29.57;43.99
75815;BME280;70031;45.570;14.228;2023-07-09T09:38:11;97514.13;;;30.38;48.93
75815;BME280;70031;45.570;14.228;2023-07-09T09:40:12;97501.56;;;29.66;44.36
75815;BME280;70031;45.570;14.228;2023-07-09T09:42:13;97501.94;;;29.89;43.28
75815;BME280;70031;45.570;14.228;2023-07-09T09:44:18;97507.44;;;30.18;44.16
75815;BME280;70031;45.570;14.228;2023-07-09T09:46:23;97508.13;;;30.43;51.47
75815;BME280;70031;45.570;14.228;2023-07-09T09:48:32;97507.81;;;30.20;46.35
75815;BME280;70031;45.570;14.228;2023-07-09T09:50:33;97498.75;;;31.03;52.10
75815;BME280;70031;45.570;14.228;2023-07-09T09:52:33;97503.38;;;30.47;44.70
75815;BME280;70031;45.570;14.228;2023-07-09T09:54:49;97497.53;;;29.99;41.92
75815;BME280;70031;45.570;14.228;2023-07-09T09:56:55;97505.09;;;30.13;42.14
75815;BME280;70031;45.570;14.228;2023-07-09T09:59:04;97499.50;;;30.06;46.01
75815;BME280;70031;45.570;14.228;2023-07-09T10:01:29;97502.31;;;30.13;46.32
75815;BME280;70031;45.570;14.228;2023-07-09T10:03:37;97504.47;;;30.71;49.84
75815;BME280;70031;45.570;14.228;2023-07-09T10:05:51;97497.16;;;30.04;39.70
75815;BME280;70031;45.570;14.228;2023-07-09T10:08:08;97498.47;;;30.76;41.70
75815;BME280;70031;45.570;14.228;2023-07-09T10:10:15;97499.50;;;30.02;40.29
75815;BME280;70031;45.570;14.228;2023-07-09T10:12:33;97504.59;;;30.39;45.43
75815;BME280;70031;45.570;14.228;2023-07-09T10:14:56;97502.56;;;30.43;39.06
75815;BME280;70031;45.570;14.228;2023-07-09T10:17:05;97498.25;;;31.16;38.90
75815;BME280;70031;45.570;14.228;2023-07-09T10:19:25;97486.44;;;31.56;39.89
75815;BME280;70031;45.570;14.228;2023-07-09T10:21:41;97484.72;;;31.70;45.98
75815;BME280;70031;45.570;14.228;2023-07-09T10:28:41;97488.34;;;31.11;46.31
75815;BME280;70031;45.570;14.228;2023-07-09T10:33:10;97491.47;;;30.47;45.92
75815;BME280;70031;45.570;14.228;2023-07-09T10:35:16;97487.81;;;30.61;46.83
75815;BME280;70031;45.570;14.228;2023-07-09T10:39:48;97487.94;;;30.36;48.00
75815;BME280;70031;45.570;14.228;2023-07-09T10:42:13;97485.53;;;30.41;41.53
75815;BME280;70031;45.570;14.228;2023-07-09T10:44:43;97501.22;;;30.87;49.29
75815;BME280;70031;45.570;14.228;2023-07-09T10:46:58;97487.03;;;30.71;42.68
75815;BME280;70031;45.570;14.228;2023-07-09T10:49:24;97484.31;;;31.19;49.36
75815;BME280;70031;45.570;14.228;2023-07-09T10:51:36;97474.38;;;30.52;42.06
75815;BME280;70031;45.570;14.228;2023-07-09T10:53:58;97479.69;;;30.11;42.18
75815;BME280;70031;45.570;14.228;2023-07-09T10:56:23;97472.78;;;30.51;42.95
75815;BME280;70031;45.570;14.228;2023-07-09T11:00:52;97470.84;;;31.11;43.02
75815;BME280;70031;45.570;14.228;2023-07-09T11:03:00;97474.34;;;30.66;44.72
75815;BME280;70031;45.570;14.228;2023-07-09T11:05:04;97468.63;;;30.91;43.46